sensor_id;sensor_type;location;lat;lon;timestamp;P1;durP1;ratioP1;P2;durP2;ratioP2
55800;SDS011;41730;51.960;20.158;2023-05-02T00:01:13;11.30;;;5.30;;
55800;SDS011;41730;51.960;20.158;2023-05-02T00:03:49;11.40;;;5.60;;
55800;SDS011;41730;51.960;20.158;2023-05-02T00:06:27;10.10;;;5.50;;
55800;SDS011;41730;51.960;20.158;2023-05-02T00:09:24;11.80;;;5.70;;
55800;SDS011;41730;51.960;20.158;2023-05-02T00:12:10;9.80;;;5.10;;
55800;SDS011;41730;51.960;20.158;2023-05-02T00:14:50;10.00;;;5.10;;
55800;SDS011;41730;51.960;20.158;2023-05-02T00:17:35;11.60;;;5.70;;
55800;SDS011;41730;51.960;20.158;2023-05-02T00:23:07;16.90;;;6.30;;
55800;SDS011;41730;51.960;20.158;2023-05-02T00:25:53;12.00;;;5.80;;
55800;SDS011;41730;51.960;20.158;2023-05-02T00:28:40;10.80;;;5.60;;
55800;SDS011;41730;51.960;20.158;2023-05-02T00:31:38;8.90;;;5.20;;
55800;SDS011;41730;51.960;20.158;2023-05-02T00:34:17;10.70;;;5.00;;
55800;SDS011;41730;51.960;20.158;2023-05-02T00:37:20;8.80;;;5.00;;
55800;SDS011;41730;51.960;20.158;2023-05-02T00:40:00;10.10;;;5.10;;
55800;SDS011;41730;51.960;20.158;2023-05-02T00:43:02;11.00;;;5.20;;
55800;SDS011;41730;51.960;20.158;2023-05-02T00:45:34;11.30;;;5.00;;
55800;SDS011;41730;51.960;20.158;2023-05-02T00:48:08;9.70;;;4.70;;
55800;SDS011;41730;51.960;20.158;2023-05-02T00:50:42;10.20;;;5.70;;
55800;SDS011;41730;51.960;20.158;2023-05-02T00:53:15;10.30;;;4.70;;
55800;SDS011;41730;51.960;20.158;2023-05-02T00:55:47;13.20;;;5.40;;
55800;SDS011;41730;51.960;20.158;2023-05-02T00:58:19;9.90;;;5.00;;
55800;SDS011;41730;51.960;20.158;2023-05-02T01:00:57;10.80;;;5.50;;
55800;SDS011;41730;51.960;20.158;2023-05-02T01:03:40;10.40;;;4.70;;
55800;SDS011;41730;51.960;20.158;2023-05-02T01:06:27;8.80;;;4.70;;
55800;SDS011;41730;51.960;20.158;2023-05-02T01:09:09;11.20;;;5.30;;
55800;SDS011;41730;51.960;20.158;2023-05-02T01:14:25;10.50;;;5.00;;
55800;SDS011;41730;51.960;20.158;2023-05-02T01:17:00;11.50;;;5.30;;
55800;SDS011;41730;51.960;20.158;2023-05-02T01:19:35;9.40;;;5.00;;
55800;SDS011;41730;51.960;20.158;2023-05-02T01:24:42;10.90;;;5.20;;
55800;SDS011;41730;51.960;20.158;2023-05-02T01:27:23;9.90;;;5.10;;
55800;SDS011;41730;51.960;20.158;2023-05-02T01:30:03;10.20;;;5.10;;
55800;SDS011;41730;51.960;20.158;2023-05-02T01:32:37;9.90;;;5.70;;
55800;SDS011;41730;51.960;20.158;2023-05-02T01:35:12;9.30;;;4.90;;
55800;SDS011;41730;51.960;20.158;2023-05-02T01:37:45;8.90;;;4.90;;
55800;SDS011;41730;51.960;20.158;2023-05-02T01:40:20;11.90;;;5.20;;
55800;SDS011;41730;51.960;20.158;2023-05-02T01:42:55;10.00;;;5.30;;
55800;SDS011;41730;51.960;20.158;2023-05-02T01:45:28;10.70;;;5.20;;
55800;SDS011;41730;51.960;20.158;2023-05-02T01:48:02;8.70;;;5.30;;
55800;SDS011;41730;51.960;20.158;2023-05-02T01:50:37;9.70;;;5.10;;
55800;SDS011;41730;51.960;20.158;2023-05-02T01:53:13;12.20;;;5.40;;
55800;SDS011;41730;51.960;20.158;2023-05-02T01:55:45;10.50;;;5.30;;
55800;SDS011;41730;51.960;20.158;2023-05-02T01:58:19;13.00;;;5.40;;
55800;SDS011;41730;51.960;20.158;2023-05-02T02:00:52;11.00;;;5.30;;
55800;SDS011;41730;51.960;20.158;2023-05-02T02:03:25;9.30;;;5.10;;
55800;SDS011;41730;51.960;20.158;2023-05-02T02:05:58;10.20;;;4.60;;
55800;SDS011;41730;51.960;20.158;2023-05-02T02:08:32;12.30;;;4.90;;
55800;SDS011;41730;51.960;20.158;2023-05-02T02:11:08;10.30;;;5.20;;
55800;SDS011;41730;51.960;20.158;2023-05-02T02:13:47;8.80;;;5.50;;
55800;SDS011;41730;51.960;20.158;2023-05-02T02:16:24;9.50;;;5.30;;
55800;SDS011;41730;51.960;20.158;2023-05-02T02:19:00;10.60;;;5.60;;
55800;SDS011;41730;51.960;20.158;2023-05-02T02:21:36;9.10;;;5.00;;
55800;SDS011;41730;51.960;20.158;2023-05-02T02:24:11;12.20;;;4.60;;
55800;SDS011;41730;51.960;20.158;2023-05-02T02:26:45;8.60;;;4.90;;
55800;SDS011;41730;51.960;20.158;2023-05-02T02:29:17;9.30;;;5.20;;
55800;SDS011;41730;51.960;20.158;2023-05-02T02:31:49;10.70;;;5.00;;
55800;SDS011;41730;51.960;20.158;2023-05-02T02:34:21;8.90;;;5.20;;
55800;SDS011;41730;51.960;20.158;2023-05-02T02:36:54;11.50;;;5.20;;
55800;SDS011;41730;51.960;20.158;2023-05-02T02:39:34;10.70;;;4.90;;
55800;SDS011;41730;51.960;20.158;2023-05-02T02:42:21;10.00;;;5.20;;
55800;SDS011;41730;51.960;20.158;2023-05-02T02:45:01;9.40;;;5.10;;
55800;SDS011;41730;51.960;20.158;2023-05-02T02:47:43;11.30;;;5.60;;
55800;SDS011;41730;51.960;20.158;2023-05-02T02:50:22;11.30;;;5.30;;
55800;SDS011;41730;51.960;20.158;2023-05-02T02:53:00;12.30;;;5.40;;
55800;SDS011;41730;51.960;20.158;2023-05-02T02:55:37;9.60;;;5.30;;
55800;SDS011;41730;51.960;20.158;2023-05-02T02:58:20;12.60;;;6.10;;
55800;SDS011;41730;51.960;20.158;2023-05-02T03:01:01;12.50;;;6.10;;
55800;SDS011;41730;51.960;20.158;2023-05-02T03:06:05;10.20;;;5.10;;
55800;SDS011;41730;51.960;20.158;2023-05-02T03:08:40;9.80;;;5.00;;
55800;SDS011;41730;51.960;20.158;2023-05-02T03:11:13;8.60;;;4.70;;
55800;SDS011;41730;51.960;20.158;2023-05-02T03:13:44;12.10;;;5.60;;
55800;SDS011;41730;51.960;20.158;2023-05-02T03:19:08;9.90;;;4.90;;
55800;SDS011;41730;51.960;20.158;2023-05-02T03:21:40;11.00;;;5.10;;
55800;SDS011;41730;51.960;20.158;2023-05-02T03:24:12;9.30;;;4.50;;
55800;SDS011;41730;51.960;20.158;2023-05-02T03:26:46;8.90;;;5.10;;
55800;SDS011;41730;51.960;20.158;2023-05-02T03:29:19;9.40;;;5.00;;
55800;SDS011;41730;51.960;20.158;2023-05-02T03:31:52;7.60;;;4.70;;
55800;SDS011;41730;51.960;20.158;2023-05-02T03:34:24;8.20;;;4.80;;
55800;SDS011;41730;51.960;20.158;2023-05-02T03:36:56;11.10;;;4.90;;
55800;SDS011;41730;51.960;20.158;2023-05-02T03:39:29;9.00;;;5.00;;
55800;SDS011;41730;51.960;20.158;2023-05-02T03:42:03;10.60;;;4.60;;
55800;SDS011;41730;51.960;20.158;2023-05-02T03:44:35;10.00;;;5.00;;
55800;SDS011;41730;51.960;20.158;2023-05-02T03:47:10;7.10;;;4.30;;
55800;SDS011;41730;51.960;20.158;2023-05-02T03:53:09;9.00;;;4.50;;
55800;SDS011;41730;51.960;20.158;2023-05-02T03:56:07;11.60;;;4.80;;
55800;SDS011;41730;51.960;20.158;2023-05-02T03:58:56;9.90;;;4.30;;
55800;SDS011;41730;51.960;20.158;2023-05-02T04:05:33;9.90;;;4.20;;
55800;SDS011;41730;51.960;20.158;2023-05-02T04:08:19;9.00;;;3.80;;
55800;SDS011;41730;51.960;20.158;2023-05-02T04:11:09;12.00;;;5.20;;
55800;SDS011;41730;51.960;20.158;2023-05-02T04:13:45;9.70;;;4.10;;
55800;SDS011;41730;51.960;20.158;2023-05-02T04:16:20;8.60;;;4.10;;
55800;SDS011;41730;51.960;20.158;2023-05-02T04:18:52;10.60;;;4.10;;
55800;SDS011;41730;51.960;20.158;2023-05-02T04:21:24;9.90;;;4.60;;
55800;SDS011;41730;51.960;20.158;2023-05-02T04:23:57;9.90;;;4.60;;
55800;SDS011;41730;51.960;20.158;2023-05-02T04:26:29;8.00;;;4.40;;
55800;SDS011;41730;51.960;20.158;2023-05-02T04:29:02;8.30;;;4.50;;
55800;SDS011;41730;51.960;20.158;2023-05-02T04:31:35;10.70;;;4.70;;
55800;SDS011;41730;51.960;20.158;2023-05-02T04:34:06;10.50;;;4.80;;
55800;SDS011;41730;51.960;20.158;2023-05-02T04:36:39;9.70;;;4.90;;
55800;SDS011;41730;51.960;20.158;2023-05-02T04:39:14;8.80;;;4.70;;
55800;SDS011;41730;51.960;20.158;2023-05-02T04:44:18;10.40;;;4.70;;
55800;SDS011;41730;51.960;20.158;2023-05-02T04:46:53;10.70;;;4.60;;
55800;SDS011;41730;51.960;20.158;2023-05-02T04:49:26;9.20;;;4.20;;
55800;SDS011;41730;51.960;20.158;2023-05-02T04:51:59;9.60;;;4.50;;
55800;SDS011;41730;51.960;20.158;2023-05-02T04:54:32;10.70;;;4.50;;
55800;SDS011;41730;51.960;20.158;2023-05-02T04:57:08;7.90;;;4.40;;
55800;SDS011;41730;51.960;20.158;2023-05-02T04:59:39;13.20;;;4.60;;
55800;SDS011;41730;51.960;20.158;2023-05-02T05:02:12;8.60;;;4.40;;
55800;SDS011;41730;51.960;20.158;2023-05-02T05:04:44;8.80;;;4.30;;
55800;SDS011;41730;51.960;20.158;2023-05-02T05:07:17;10.30;;;4.90;;
55800;SDS011;41730;51.960;20.158;2023-05-02T05:09:49;10.00;;;4.60;;
55800;SDS011;41730;51.960;20.158;2023-05-02T05:12:21;8.50;;;4.40;;
55800;SDS011;41730;51.960;20.158;2023-05-02T05:14:53;10.40;;;4.80;;
55800;SDS011;41730;51.960;20.158;2023-05-02T05:17:25;11.60;;;4.40;;
55800;SDS011;41730;51.960;20.158;2023-05-02T05:19:57;7.80;;;5.00;;
55800;SDS011;41730;51.960;20.158;2023-05-02T05:22:30;15.00;;;5.10;;
55800;SDS011;41730;51.960;20.158;2023-05-02T05:25:08;12.00;;;4.50;;
55800;SDS011;41730;51.960;20.158;2023-05-02T05:27:42;9.40;;;4.30;;
55800;SDS011;41730;51.960;20.158;2023-05-02T05:30:13;10.70;;;4.50;;
55800;SDS011;41730;51.960;20.158;2023-05-02T05:32:46;8.50;;;5.00;;
55800;SDS011;41730;51.960;20.158;2023-05-02T05:35:19;8.00;;;4.00;;
55800;SDS011;41730;51.960;20.158;2023-05-02T05:37:50;7.80;;;4.40;;
55800;SDS011;41730;51.960;20.158;2023-05-02T05:40:23;9.10;;;4.50;;
55800;SDS011;41730;51.960;20.158;2023-05-02T05:42:55;7.00;;;4.10;;
55800;SDS011;41730;51.960;20.158;2023-05-02T05:45:28;9.00;;;4.70;;
55800;SDS011;41730;51.960;20.158;2023-05-02T05:47:59;8.50;;;4.60;;
55800;SDS011;41730;51.960;20.158;2023-05-02T05:50:31;11.00;;;4.40;;
55800;SDS011;41730;51.960;20.158;2023-05-02T05:53:03;9.90;;;5.20;;
55800;SDS011;41730;51.960;20.158;2023-05-02T05:55:35;10.60;;;4.90;;
55800;SDS011;41730;51.960;20.158;2023-05-02T05:58:09;8.20;;;5.00;;
55800;SDS011;41730;51.960;20.158;2023-05-02T06:00:41;9.00;;;5.10;;
55800;SDS011;41730;51.960;20.158;2023-05-02T06:03:13;9.50;;;5.40;;
55800;SDS011;41730;51.960;20.158;2023-05-02T06:05:45;7.90;;;4.70;;
55800;SDS011;41730;51.960;20.158;2023-05-02T06:08:17;11.60;;;5.00;;
55800;SDS011;41730;51.960;20.158;2023-05-02T06:10:49;11.10;;;4.60;;
55800;SDS011;41730;51.960;20.158;2023-05-02T06:13:20;8.80;;;4.90;;
55800;SDS011;41730;51.960;20.158;2023-05-02T06:15:52;8.30;;;4.60;;
55800;SDS011;41730;51.960;20.158;2023-05-02T06:18:28;7.40;;;4.40;;
55800;SDS011;41730;51.960;20.158;2023-05-02T06:21:03;10.10;;;4.70;;
55800;SDS011;41730;51.960;20.158;2023-05-02T06:23:37;8.30;;;4.70;;
55800;SDS011;41730;51.960;20.158;2023-05-02T06:26:09;9.10;;;4.50;;
55800;SDS011;41730;51.960;20.158;2023-05-02T06:28:41;7.10;;;4.40;;
55800;SDS011;41730;51.960;20.158;2023-05-02T06:31:13;7.80;;;4.60;;
55800;SDS011;41730;51.960;20.158;2023-05-02T06:33:45;13.10;;;4.40;;
55800;SDS011;41730;51.960;20.158;2023-05-02T06:36:17;11.70;;;4.60;;
55800;SDS011;41730;51.960;20.158;2023-05-02T06:38:49;7.70;;;4.50;;
55800;SDS011;41730;51.960;20.158;2023-05-02T06:41:21;6.30;;;3.90;;
55800;SDS011;41730;51.960;20.158;2023-05-02T06:43:53;9.00;;;4.40;;
55800;SDS011;41730;51.960;20.158;2023-05-02T06:46:28;10.00;;;4.50;;
55800;SDS011;41730;51.960;20.158;2023-05-02T06:49:00;7.80;;;4.10;;
55800;SDS011;41730;51.960;20.158;2023-05-02T06:51:32;9.60;;;5.10;;
55800;SDS011;41730;51.960;20.158;2023-05-02T06:54:04;7.90;;;4.10;;
55800;SDS011;41730;51.960;20.158;2023-05-02T06:56:36;7.30;;;4.10;;
55800;SDS011;41730;51.960;20.158;2023-05-02T06:59:08;9.60;;;4.20;;
55800;SDS011;41730;51.960;20.158;2023-05-02T07:01:40;9.00;;;3.90;;
55800;SDS011;41730;51.960;20.158;2023-05-02T07:04:12;6.30;;;3.60;;
55800;SDS011;41730;51.960;20.158;2023-05-02T07:06:44;9.50;;;4.10;;
55800;SDS011;41730;51.960;20.158;2023-05-02T07:09:16;6.20;;;3.60;;
55800;SDS011;41730;51.960;20.158;2023-05-02T07:11:48;7.90;;;4.00;;
55800;SDS011;41730;51.960;20.158;2023-05-02T07:14:20;7.60;;;4.00;;
55800;SDS011;41730;51.960;20.158;2023-05-02T07:16:53;8.80;;;4.00;;
55800;SDS011;41730;51.960;20.158;2023-05-02T07:19:25;7.80;;;4.20;;
55800;SDS011;41730;51.960;20.158;2023-05-02T07:21:58;8.80;;;4.70;;
55800;SDS011;41730;51.960;20.158;2023-05-02T07:24:30;6.80;;;4.10;;
55800;SDS011;41730;51.960;20.158;2023-05-02T07:27:02;7.30;;;4.50;;
55800;SDS011;41730;51.960;20.158;2023-05-02T07:29:34;8.00;;;4.60;;
55800;SDS011;41730;51.960;20.158;2023-05-02T07:32:06;9.10;;;4.80;;
55800;SDS011;41730;51.960;20.158;2023-05-02T07:34:38;7.30;;;4.80;;
55800;SDS011;41730;51.960;20.158;2023-05-02T07:37:09;7.20;;;4.40;;
55800;SDS011;41730;51.960;20.158;2023-05-02T07:39:41;9.50;;;4.60;;
55800;SDS011;41730;51.960;20.158;2023-05-02T07:42:13;10.90;;;4.60;;
55800;SDS011;41730;51.960;20.158;2023-05-02T07:44:44;16.50;;;4.50;;
55800;SDS011;41730;51.960;20.158;2023-05-02T07:47:16;7.10;;;4.00;;
55800;SDS011;41730;51.960;20.158;2023-05-02T07:49:51;7.80;;;4.00;;
55800;SDS011;41730;51.960;20.158;2023-05-02T07:52:24;8.30;;;4.50;;
55800;SDS011;41730;51.960;20.158;2023-05-02T07:54:56;9.20;;;4.20;;
55800;SDS011;41730;51.960;20.158;2023-05-02T07:57:28;9.00;;;4.60;;
55800;SDS011;41730;51.960;20.158;2023-05-02T08:00:00;9.50;;;4.40;;
55800;SDS011;41730;51.960;20.158;2023-05-02T08:02:35;7.90;;;4.60;;
55800;SDS011;41730;51.960;20.158;2023-05-02T08:05:07;7.10;;;4.20;;
55800;SDS011;41730;51.960;20.158;2023-05-02T08:07:39;6.20;;;4.40;;
55800;SDS011;41730;51.960;20.158;2023-05-02T08:10:11;7.30;;;4.40;;
55800;SDS011;41730;51.960;20.158;2023-05-02T08:12:43;7.40;;;4.30;;
55800;SDS011;41730;51.960;20.158;2023-05-02T08:15:14;5.90;;;3.90;;
55800;SDS011;41730;51.960;20.158;2023-05-02T08:17:47;5.80;;;3.70;;
55800;SDS011;41730;51.960;20.158;2023-05-02T08:20:18;5.90;;;3.60;;
55800;SDS011;41730;51.960;20.158;2023-05-02T08:22:50;6.20;;;3.60;;
55800;SDS011;41730;51.960;20.158;2023-05-02T08:25:25;6.90;;;3.90;;
55800;SDS011;41730;51.960;20.158;2023-05-02T08:27:57;5.90;;;3.50;;
55800;SDS011;41730;51.960;20.158;2023-05-02T08:30:29;7.90;;;4.00;;
55800;SDS011;41730;51.960;20.158;2023-05-02T08:33:01;8.40;;;4.10;;
55800;SDS011;41730;51.960;20.158;2023-05-02T08:35:32;14.00;;;4.10;;
55800;SDS011;41730;51.960;20.158;2023-05-02T08:38:04;7.80;;;4.10;;
55800;SDS011;41730;51.960;20.158;2023-05-02T08:40:36;6.30;;;4.10;;
55800;SDS011;41730;51.960;20.158;2023-05-02T08:43:11;6.40;;;4.00;;
55800;SDS011;41730;51.960;20.158;2023-05-02T08:45:45;6.00;;;3.30;;
55800;SDS011;41730;51.960;20.158;2023-05-02T08:48:18;6.10;;;4.10;;
55800;SDS011;41730;51.960;20.158;2023-05-02T08:50:50;6.30;;;4.20;;
55800;SDS011;41730;51.960;20.158;2023-05-02T08:53:23;5.90;;;4.00;;
55800;SDS011;41730;51.960;20.158;2023-05-02T08:55:55;6.20;;;4.20;;
55800;SDS011;41730;51.960;20.158;2023-05-02T08:58:27;7.70;;;4.30;;
55800;SDS011;41730;51.960;20.158;2023-05-02T09:00:59;6.50;;;3.90;;
55800;SDS011;41730;51.960;20.158;2023-05-02T09:03:34;6.70;;;4.00;;
55800;SDS011;41730;51.960;20.158;2023-05-02T09:06:07;5.70;;;4.10;;
55800;SDS011;41730;51.960;20.158;2023-05-02T09:08:40;5.60;;;4.00;;
55800;SDS011;41730;51.960;20.158;2023-05-02T09:11:13;11.20;;;4.50;;
55800;SDS011;41730;51.960;20.158;2023-05-02T09:13:46;12.20;;;4.20;;
55800;SDS011;41730;51.960;20.158;2023-05-02T09:16:19;6.30;;;4.10;;
55800;SDS011;41730;51.960;20.158;2023-05-02T09:18:53;5.90;;;3.50;;
55800;SDS011;41730;51.960;20.158;2023-05-02T09:21:34;5.90;;;3.60;;
55800;SDS011;41730;51.960;20.158;2023-05-02T09:24:15;5.70;;;3.70;;
55800;SDS011;41730;51.960;20.158;2023-05-02T09:26:56;5.80;;;4.10;;
55800;SDS011;41730;51.960;20.158;2023-05-02T09:29:32;7.30;;;4.50;;
55800;SDS011;41730;51.960;20.158;2023-05-02T09:32:06;8.40;;;3.90;;
55800;SDS011;41730;51.960;20.158;2023-05-02T09:34:37;7.40;;;4.50;;
55800;SDS011;41730;51.960;20.158;2023-05-02T09:37:09;6.40;;;4.20;;
55800;SDS011;41730;51.960;20.158;2023-05-02T09:40:08;5.80;;;4.00;;
55800;SDS011;41730;51.960;20.158;2023-05-02T09:42:42;5.10;;;3.70;;
55800;SDS011;41730;51.960;20.158;2023-05-02T09:45:21;6.60;;;3.90;;
55800;SDS011;41730;51.960;20.158;2023-05-02T09:47:55;6.40;;;4.30;;
55800;SDS011;41730;51.960;20.158;2023-05-02T09:50:32;6.20;;;3.80;;
55800;SDS011;41730;51.960;20.158;2023-05-02T09:53:06;6.30;;;4.30;;
55800;SDS011;41730;51.960;20.158;2023-05-02T09:55:39;7.40;;;4.80;;
55800;SDS011;41730;51.960;20.158;2023-05-02T09:58:20;5.70;;;4.60;;
55800;SDS011;41730;51.960;20.158;2023-05-02T10:00:52;7.80;;;4.60;;
55800;SDS011;41730;51.960;20.158;2023-05-02T10:03:24;7.70;;;4.80;;
55800;SDS011;41730;51.960;20.158;2023-05-02T10:05:57;7.20;;;4.80;;
55800;SDS011;41730;51.960;20.158;2023-05-02T10:08:29;6.80;;;4.90;;
55800;SDS011;41730;51.960;20.158;2023-05-02T10:11:03;7.60;;;4.70;;
55800;SDS011;41730;51.960;20.158;2023-05-02T10:13:37;7.40;;;4.80;;
55800;SDS011;41730;51.960;20.158;2023-05-02T10:16:12;9.50;;;4.70;;
55800;SDS011;41730;51.960;20.158;2023-05-02T10:18:56;11.60;;;4.90;;
55800;SDS011;41730;51.960;20.158;2023-05-02T10:21:43;7.40;;;4.70;;
55800;SDS011;41730;51.960;20.158;2023-05-02T10:24:16;7.90;;;4.90;;
55800;SDS011;41730;51.960;20.158;2023-05-02T10:26:48;7.60;;;4.60;;
55800;SDS011;41730;51.960;20.158;2023-05-02T10:29:20;9.10;;;5.30;;
55800;SDS011;41730;51.960;20.158;2023-05-02T10:31:52;8.10;;;5.00;;
55800;SDS011;41730;51.960;20.158;2023-05-02T10:34:25;8.30;;;5.10;;
55800;SDS011;41730;51.960;20.158;2023-05-02T10:37:01;8.90;;;5.50;;
55800;SDS011;41730;51.960;20.158;2023-05-02T10:39:33;8.60;;;5.30;;
55800;SDS011;41730;51.960;20.158;2023-05-02T10:42:05;7.80;;;5.50;;
55800;SDS011;41730;51.960;20.158;2023-05-02T10:44:38;9.50;;;5.40;;
55800;SDS011;41730;51.960;20.158;2023-05-02T10:47:20;11.10;;;5.70;;
55800;SDS011;41730;51.960;20.158;2023-05-02T10:49:53;11.00;;;5.00;;
55800;SDS011;41730;51.960;20.158;2023-05-02T10:52:26;7.40;;;5.80;;
55800;SDS011;41730;51.960;20.158;2023-05-02T10:55:16;13.30;;;5.90;;
55800;SDS011;41730;51.960;20.158;2023-05-02T11:00:51;9.10;;;5.80;;
55800;SDS011;41730;51.960;20.158;2023-05-02T11:03:56;8.30;;;5.50;;
55800;SDS011;41730;51.960;20.158;2023-05-02T11:06:29;9.50;;;5.50;;
55800;SDS011;41730;51.960;20.158;2023-05-02T11:12:01;9.40;;;5.30;;
55800;SDS011;41730;51.960;20.158;2023-05-02T11:14:47;6.80;;;4.50;;
55800;SDS011;41730;51.960;20.158;2023-05-02T11:17:19;10.00;;;5.10;;
55800;SDS011;41730;51.960;20.158;2023-05-02T11:22:58;7.00;;;4.90;;
55800;SDS011;41730;51.960;20.158;2023-05-02T11:25:55;6.60;;;4.50;;
55800;SDS011;41730;51.960;20.158;2023-05-02T11:28:40;5.80;;;4.40;;
55800;SDS011;41730;51.960;20.158;2023-05-02T11:34:25;5.80;;;4.00;;
55800;SDS011;41730;51.960;20.158;2023-05-02T11:36:57;9.80;;;4.10;;
55800;SDS011;41730;51.960;20.158;2023-05-02T11:39:30;6.50;;;3.50;;
55800;SDS011;41730;51.960;20.158;2023-05-02T11:42:02;6.60;;;3.70;;
55800;SDS011;41730;51.960;20.158;2023-05-02T11:44:36;5.20;;;3.50;;
55800;SDS011;41730;51.960;20.158;2023-05-02T11:47:31;5.50;;;3.90;;
55800;SDS011;41730;51.960;20.158;2023-05-02T11:50:06;5.70;;;3.90;;
55800;SDS011;41730;51.960;20.158;2023-05-02T11:52:39;6.10;;;3.50;;
55800;SDS011;41730;51.960;20.158;2023-05-02T11:55:12;7.10;;;3.50;;
55800;SDS011;41730;51.960;20.158;2023-05-02T11:57:45;7.00;;;3.40;;
55800;SDS011;41730;51.960;20.158;2023-05-02T12:00:17;4.80;;;2.80;;
55800;SDS011;41730;51.960;20.158;2023-05-02T12:02:55;5.00;;;3.40;;
55800;SDS011;41730;51.960;20.158;2023-05-02T12:05:30;5.30;;;3.10;;
55800;SDS011;41730;51.960;20.158;2023-05-02T12:08:02;5.30;;;3.20;;
55800;SDS011;41730;51.960;20.158;2023-05-02T12:10:37;5.90;;;3.40;;
55800;SDS011;41730;51.960;20.158;2023-05-02T12:13:09;4.20;;;3.30;;
55800;SDS011;41730;51.960;20.158;2023-05-02T12:15:41;5.50;;;3.10;;
55800;SDS011;41730;51.960;20.158;2023-05-02T12:18:13;6.80;;;3.30;;
55800;SDS011;41730;51.960;20.158;2023-05-02T12:20:49;5.90;;;3.70;;
55800;SDS011;41730;51.960;20.158;2023-05-02T12:23:22;6.50;;;3.30;;
55800;SDS011;41730;51.960;20.158;2023-05-02T12:25:54;5.50;;;3.10;;
55800;SDS011;41730;51.960;20.158;2023-05-02T12:28:27;4.90;;;3.20;;
55800;SDS011;41730;51.960;20.158;2023-05-02T12:30:59;4.80;;;3.10;;
55800;SDS011;41730;51.960;20.158;2023-05-02T12:33:44;7.60;;;3.60;;
55800;SDS011;41730;51.960;20.158;2023-05-02T12:36:18;4.60;;;3.30;;
55800;SDS011;41730;51.960;20.158;2023-05-02T12:38:49;5.50;;;3.50;;
55800;SDS011;41730;51.960;20.158;2023-05-02T12:44:03;7.60;;;3.30;;
55800;SDS011;41730;51.960;20.158;2023-05-02T12:46:36;5.50;;;3.30;;
55800;SDS011;41730;51.960;20.158;2023-05-02T12:49:26;6.70;;;2.80;;
55800;SDS011;41730;51.960;20.158;2023-05-02T12:51:58;6.50;;;2.90;;
55800;SDS011;41730;51.960;20.158;2023-05-02T12:54:30;4.70;;;2.70;;
55800;SDS011;41730;51.960;20.158;2023-05-02T12:57:02;3.70;;;2.50;;
55800;SDS011;41730;51.960;20.158;2023-05-02T12:59:33;4.10;;;2.90;;
55800;SDS011;41730;51.960;20.158;2023-05-02T13:02:05;6.60;;;3.00;;
55800;SDS011;41730;51.960;20.158;2023-05-02T13:04:39;5.30;;;2.80;;
55800;SDS011;41730;51.960;20.158;2023-05-02T13:07:11;6.40;;;2.90;;
55800;SDS011;41730;51.960;20.158;2023-05-02T13:09:43;5.40;;;3.30;;
55800;SDS011;41730;51.960;20.158;2023-05-02T13:12:15;5.30;;;2.90;;
55800;SDS011;41730;51.960;20.158;2023-05-02T13:14:46;6.40;;;3.10;;
55800;SDS011;41730;51.960;20.158;2023-05-02T13:17:18;5.70;;;3.10;;
55800;SDS011;41730;51.960;20.158;2023-05-02T13:19:50;4.00;;;2.70;;
55800;SDS011;41730;51.960;20.158;2023-05-02T13:22:30;7.80;;;3.40;;
55800;SDS011;41730;51.960;20.158;2023-05-02T13:25:02;5.20;;;2.90;;
55800;SDS011;41730;51.960;20.158;2023-05-02T13:27:34;4.80;;;3.00;;
55800;SDS011;41730;51.960;20.158;2023-05-02T13:30:07;4.50;;;3.00;;
55800;SDS011;41730;51.960;20.158;2023-05-02T13:32:40;5.70;;;2.80;;
55800;SDS011;41730;51.960;20.158;2023-05-02T13:35:12;6.40;;;2.90;;
55800;SDS011;41730;51.960;20.158;2023-05-02T13:37:45;4.60;;;3.00;;
55800;SDS011;41730;51.960;20.158;2023-05-02T13:40:17;5.50;;;2.70;;
55800;SDS011;41730;51.960;20.158;2023-05-02T13:42:49;5.10;;;2.60;;
55800;SDS011;41730;51.960;20.158;2023-05-02T13:45:21;5.90;;;3.00;;
55800;SDS011;41730;51.960;20.158;2023-05-02T13:47:52;4.30;;;2.40;;
55800;SDS011;41730;51.960;20.158;2023-05-02T13:50:24;7.90;;;3.50;;
55800;SDS011;41730;51.960;20.158;2023-05-02T13:52:57;4.50;;;2.80;;
55800;SDS011;41730;51.960;20.158;2023-05-02T13:55:28;5.60;;;2.90;;
55800;SDS011;41730;51.960;20.158;2023-05-02T13:57:59;5.50;;;2.80;;
55800;SDS011;41730;51.960;20.158;2023-05-02T14:00:31;7.10;;;3.10;;
55800;SDS011;41730;51.960;20.158;2023-05-02T14:03:03;6.10;;;2.70;;
55800;SDS011;41730;51.960;20.158;2023-05-02T14:05:35;4.00;;;2.60;;
55800;SDS011;41730;51.960;20.158;2023-05-02T14:08:10;4.50;;;2.90;;
55800;SDS011;41730;51.960;20.158;2023-05-02T14:10:45;5.60;;;2.70;;
55800;SDS011;41730;51.960;20.158;2023-05-02T14:13:17;7.30;;;3.50;;
55800;SDS011;41730;51.960;20.158;2023-05-02T14:15:48;5.60;;;2.70;;
55800;SDS011;41730;51.960;20.158;2023-05-02T14:18:22;5.60;;;2.90;;
55800;SDS011;41730;51.960;20.158;2023-05-02T14:20:53;6.60;;;3.10;;
55800;SDS011;41730;51.960;20.158;2023-05-02T14:23:27;7.50;;;3.40;;
55800;SDS011;41730;51.960;20.158;2023-05-02T14:25:59;4.60;;;2.90;;
55800;SDS011;41730;51.960;20.158;2023-05-02T14:28:31;4.30;;;2.90;;
55800;SDS011;41730;51.960;20.158;2023-05-02T14:31:02;4.20;;;2.70;;
55800;SDS011;41730;51.960;20.158;2023-05-02T14:33:33;5.10;;;3.00;;
55800;SDS011;41730;51.960;20.158;2023-05-02T14:36:06;5.10;;;3.10;;
55800;SDS011;41730;51.960;20.158;2023-05-02T14:38:37;7.90;;;3.20;;
55800;SDS011;41730;51.960;20.158;2023-05-02T14:41:09;4.90;;;3.00;;
55800;SDS011;41730;51.960;20.158;2023-05-02T14:43:41;5.70;;;3.30;;
55800;SDS011;41730;51.960;20.158;2023-05-02T14:46:13;5.20;;;3.00;;
55800;SDS011;41730;51.960;20.158;2023-05-02T14:48:45;7.60;;;3.40;;
55800;SDS011;41730;51.960;20.158;2023-05-02T14:51:17;4.70;;;3.20;;
55800;SDS011;41730;51.960;20.158;2023-05-02T14:53:48;4.70;;;3.10;;
55800;SDS011;41730;51.960;20.158;2023-05-02T14:56:21;4.50;;;3.00;;
55800;SDS011;41730;51.960;20.158;2023-05-02T14:58:53;7.50;;;3.60;;
55800;SDS011;41730;51.960;20.158;2023-05-02T15:01:25;5.30;;;3.30;;
55800;SDS011;41730;51.960;20.158;2023-05-02T15:03:58;7.90;;;4.00;;
55800;SDS011;41730;51.960;20.158;2023-05-02T15:06:37;7.90;;;4.90;;
55800;SDS011;41730;51.960;20.158;2023-05-02T15:09:09;5.70;;;4.20;;
55800;SDS011;41730;51.960;20.158;2023-05-02T15:11:40;6.10;;;4.40;;
55800;SDS011;41730;51.960;20.158;2023-05-02T15:14:12;5.00;;;4.10;;
55800;SDS011;41730;51.960;20.158;2023-05-02T15:16:43;6.60;;;3.90;;
55800;SDS011;41730;51.960;20.158;2023-05-02T15:19:15;7.30;;;3.80;;
55800;SDS011;41730;51.960;20.158;2023-05-02T15:21:47;6.80;;;4.40;;
55800;SDS011;41730;51.960;20.158;2023-05-02T15:24:22;7.80;;;4.70;;
55800;SDS011;41730;51.960;20.158;2023-05-02T15:26:55;7.00;;;4.60;;
55800;SDS011;41730;51.960;20.158;2023-05-02T15:29:26;6.10;;;4.30;;
55800;SDS011;41730;51.960;20.158;2023-05-02T15:31:58;6.20;;;4.00;;
55800;SDS011;41730;51.960;20.158;2023-05-02T15:34:29;7.30;;;3.80;;
55800;SDS011;41730;51.960;20.158;2023-05-02T15:37:01;4.50;;;3.50;;
55800;SDS011;41730;51.960;20.158;2023-05-02T15:39:33;9.50;;;4.00;;
55800;SDS011;41730;51.960;20.158;2023-05-02T15:42:05;9.50;;;3.70;;
55800;SDS011;41730;51.960;20.158;2023-05-02T15:44:38;5.60;;;4.00;;
55800;SDS011;41730;51.960;20.158;2023-05-02T15:47:09;8.90;;;4.00;;
55800;SDS011;41730;51.960;20.158;2023-05-02T15:49:42;8.30;;;4.50;;
55800;SDS011;41730;51.960;20.158;2023-05-02T15:52:13;7.00;;;4.40;;